Terminal Aerodrome Forecast
Issued by NWS

Home | Current Version | Previous Version | Text Only | Print | Product List | Glossary On
Versions: 1 2 3 4 5 6 7 8 9 10 11 12 13 14
000
FTUS45 KABQ 162132 AAA
TAFLVS
TAF AMD
KLVS 162132Z 1622/1718 17011KT P6SM FEW250
     FM170100 33008KT P6SM SCT250
     FM170900 04006KT P6SM BKN200
     FM171600 15007KT P6SM OVC120=

USA.gov is the U.S. government's official web portal to all federal, state and local government web resources and services.